createdAt,value
2023-01-25T00:02:14.803Z,102494.88
2023-01-25T00:04:41.319Z,102489.63
2023-01-25T00:07:07.863Z,102486.97
2023-01-25T00:09:34.407Z,102484.19
2023-01-25T00:12:01.044Z,102485.34
2023-01-25T00:14:27.552Z,102472.16
2023-01-25T00:16:54.175Z,102471.34
2023-01-25T00:19:20.867Z,102471.47
2023-01-25T00:21:47.451Z,102464.41
2023-01-25T00:24:14.548Z,102465.06
2023-01-25T00:26:44.098Z,102454.69
2023-01-25T00:29:14.394Z,102459.16
2023-01-25T00:32:07.092Z,102456.50
2023-01-25T00:34:48.779Z,102453.19
2023-01-25T00:37:18.217Z,102445.47
2023-01-25T00:39:44.728Z,102446.09
2023-01-25T00:42:11.975Z,102444.28
2023-01-25T00:44:39.161Z,102444.47
2023-01-25T00:47:06.295Z,102446.91
2023-01-25T00:49:33.595Z,102441.00
2023-01-25T00:52:00.943Z,102437.69
2023-01-25T00:54:27.579Z,102436.88
2023-01-25T00:56:56.340Z,102440.34
2023-01-25T00:59:24.178Z,102425.19
2023-01-25T01:01:51.674Z,102434.25
2023-01-25T01:04:19.481Z,102431.13
2023-01-25T01:06:46.834Z,102430.31
2023-01-25T01:09:18.171Z,102428.31
2023-01-25T01:11:44.831Z,102422.56
2023-01-25T01:14:11.774Z,102423.03
2023-01-25T01:16:38.367Z,102421.91
2023-01-25T01:19:05.529Z,102434.59
2023-01-25T01:21:32.547Z,102427.50
2023-01-25T01:23:59.458Z,102423.72
2023-01-25T01:26:26.049Z,102424.88
2023-01-25T01:28:52.704Z,102421.59
2023-01-25T01:31:22.654Z,102423.38
2023-01-25T01:33:54.185Z,102419.09
2023-01-25T01:36:26.307Z,102421.72
2023-01-25T01:38:52.840Z,102413.50
2023-01-25T01:41:19.985Z,102411.69
2023-01-25T01:43:46.616Z,102413.19
2023-01-25T01:46:22.537Z,102403.59
2023-01-25T01:48:58.484Z,102405.28
2023-01-25T01:51:35.070Z,102415.00
2023-01-25T01:54:43.184Z,102407.41
2023-01-25T01:57:14.481Z,102404.09
2023-01-25T01:59:48.004Z,102398.34
2023-01-25T02:02:15.165Z,102400.97
2023-01-25T02:04:44.951Z,102394.88
2023-01-25T02:07:21.130Z,102390.44
2023-01-25T02:09:50.194Z,102400.97
2023-01-25T02:12:18.212Z,102397.69
2023-01-25T02:14:50.086Z,102394.88
2023-01-25T02:17:22.927Z,102398.50
2023-01-25T02:19:58.295Z,102386.34
2023-01-25T02:22:35.523Z,102387.66
2023-01-25T02:25:09.951Z,102390.91
2023-01-25T02:27:41.522Z,102386.97
2023-01-25T02:30:09.216Z,102390.09
2023-01-25T02:32:35.729Z,102388.09
2023-01-25T02:35:02.237Z,102395.66
2023-01-25T02:37:29.577Z,102389.88
2023-01-25T02:39:56.090Z,102387.03
2023-01-25T02:42:22.706Z,102376.03
2023-01-25T02:44:50.904Z,102374.84
2023-01-25T02:47:17.513Z,102379.25
2023-01-25T02:49:45.340Z,102374.16
2023-01-25T02:52:11.893Z,102365.75
2023-01-25T02:54:38.813Z,102380.34
2023-01-25T02:57:05.411Z,102373.63
2023-01-25T02:59:31.928Z,102375.91
2023-01-25T03:01:58.573Z,102374.41
2023-01-25T03:04:25.261Z,102376.53
2023-01-25T03:06:51.927Z,102374.72
2023-01-25T03:09:18.533Z,102370.75
2023-01-25T03:11:45.139Z,102366.63
2023-01-25T03:14:11.651Z,102358.91
2023-01-25T03:16:38.241Z,102358.56
2023-01-25T03:19:04.779Z,102354.59
2023-01-25T03:21:31.568Z,102363.16
2023-01-25T03:24:00.600Z,102365.44
2023-01-25T03:26:28.672Z,102368.06
2023-01-25T03:28:55.408Z,102369.03
2023-01-25T03:31:22.103Z,102371.50
2023-01-25T03:33:49.810Z,102374.63
2023-01-25T03:36:16.505Z,102367.03
2023-01-25T03:38:43.132Z,102360.44
2023-01-25T03:41:10.225Z,102360.28
2023-01-25T03:43:36.711Z,102363.06
2023-01-25T03:46:03.262Z,102352.88
2023-01-25T03:48:29.885Z,102353.16
2023-01-25T03:50:58.962Z,102348.91
2023-01-25T03:53:29.203Z,102344.63
2023-01-25T03:56:02.286Z,102344.44
2023-01-25T03:58:30.150Z,102353.09
2023-01-25T04:00:59.081Z,102350.63
2023-01-25T04:03:26.664Z,102344.84
2023-01-25T04:05:54.844Z,102341.25
2023-01-25T04:08:22.393Z,102338.78
2023-01-25T04:10:56.621Z,102342.53
2023-01-25T04:13:24.710Z,102341.53
2023-01-25T04:15:51.529Z,102338.56
2023-01-25T04:18:19.165Z,102337.41
2023-01-25T04:20:46.193Z,102332.13
2023-01-25T04:23:12.900Z,102337.41
2023-01-25T04:25:39.476Z,102334.91
2023-01-25T04:28:05.993Z,102326.19
2023-01-25T04:30:32.555Z,102328.78
2023-01-25T04:33:03.853Z,102330.41
2023-01-25T04:35:30.598Z,102320.06
2023-01-25T04:37:59.151Z,102322.69
2023-01-25T04:40:26.320Z,102324.00
2023-01-25T04:42:52.838Z,102318.69
2023-01-25T04:45:19.352Z,102317.19
2023-01-25T04:47:45.876Z,102316.66
2023-01-25T04:50:12.462Z,102308.47
2023-01-25T04:52:39.106Z,102309.31
2023-01-25T04:55:05.965Z,102311.28
2023-01-25T04:57:32.512Z,102303.69
2023-01-25T04:59:59.016Z,102303.41
2023-01-25T05:02:27.135Z,102311.06
2023-01-25T05:04:53.788Z,102302.81
2023-01-25T05:07:20.327Z,102299.84
2023-01-25T05:09:46.858Z,102289.19
2023-01-25T05:12:13.803Z,102289.00
2023-01-25T05:14:40.381Z,102282.94
2023-01-25T05:17:08.060Z,102277.69
2023-01-25T05:19:35.037Z,102278.00
2023-01-25T05:22:03.699Z,102272.44
2023-01-25T05:24:32.415Z,102269.50
2023-01-25T05:27:05.386Z,102271.78
2023-01-25T05:29:42.924Z,102267.81
2023-01-25T05:32:15.806Z,102262.34
2023-01-25T05:34:42.721Z,102263.38
2023-01-25T05:37:11.780Z,102248.91
2023-01-25T05:39:38.311Z,102257.09
2023-01-25T05:42:12.960Z,102266.97
2023-01-25T05:44:40.293Z,102261.22
2023-01-25T05:47:07.301Z,102261.66
2023-01-25T05:49:33.834Z,102255.06
2023-01-25T05:52:00.397Z,102258.22
2023-01-25T05:54:26.996Z,102256.56
2023-01-25T05:56:53.605Z,102253.31
2023-01-25T05:59:20.126Z,102258.03
2023-01-25T06:01:46.975Z,102261.31
2023-01-25T06:04:15.995Z,102249.00
2023-01-25T06:06:42.856Z,102248.88
2023-01-25T06:09:13.593Z,102256.06
2023-01-25T06:11:42.883Z,102252.44
2023-01-25T06:14:09.528Z,102251.31
2023-01-25T06:16:36.040Z,102249.88
2023-01-25T06:19:05.482Z,102252.00
2023-01-25T06:21:35.278Z,102248.69
2023-01-25T06:24:01.836Z,102256.06
2023-01-25T06:26:28.441Z,102253.59
2023-01-25T06:28:54.928Z,102244.44
2023-01-25T06:31:21.546Z,102240.31
2023-01-25T06:33:50.435Z,102244.97
2023-01-25T06:36:19.659Z,102234.28
2023-01-25T06:38:51.230Z,102233.63
2023-01-25T06:41:18.594Z,102233.41
2023-01-25T06:43:45.371Z,102229.16
2023-01-25T06:46:12.764Z,102225.53
2023-01-25T06:48:40.005Z,102218.50
2023-01-25T06:51:09.190Z,102215.56
2023-01-25T06:53:38.417Z,102211.31
2023-01-25T06:56:11.831Z,102219.31
2023-01-25T06:58:39.681Z,102214.88
2023-01-25T07:01:11.778Z,102214.88
2023-01-25T07:03:38.730Z,102211.13
2023-01-25T07:06:08.160Z,102208.22
2023-01-25T07:08:35.764Z,102207.56
2023-01-25T07:11:05.340Z,102204.47
2023-01-25T07:13:34.165Z,102197.13
2023-01-25T07:16:03.788Z,102193.06
2023-01-25T07:18:31.295Z,102195.34
2023-01-25T07:21:10.003Z,102197.66
2023-01-25T07:23:38.053Z,102193.91
2023-01-25T07:26:06.404Z,102192.94
2023-01-25T07:28:33.275Z,102191.81
2023-01-25T07:31:07.008Z,102186.38
2023-01-25T07:33:34.676Z,102195.91
2023-01-25T07:36:06.438Z,102199.22
2023-01-25T07:38:33.468Z,102197.22
2023-01-25T07:41:00.062Z,102181.34
2023-01-25T07:43:26.919Z,102181.34
2023-01-25T07:45:53.974Z,102172.34
2023-01-25T07:48:21.261Z,102167.06
2023-01-25T07:50:49.686Z,102173.78
2023-01-25T07:53:17.096Z,102167.56
2023-01-25T07:55:43.883Z,102168.41
2023-01-25T07:58:11.791Z,102157.72
2023-01-25T08:00:38.380Z,102156.75
2023-01-25T08:03:04.938Z,102153.97
2023-01-25T08:05:31.484Z,102152.00
2023-01-25T08:07:57.992Z,102151.00
2023-01-25T08:10:24.531Z,102146.44
2023-01-25T08:12:51.197Z,102134.94
2023-01-25T08:15:18.950Z,102133.94
2023-01-25T08:17:45.496Z,102134.63
2023-01-25T08:20:12.688Z,102144.94
2023-01-25T08:22:39.218Z,102129.88
2023-01-25T08:25:06.481Z,102121.81
2023-01-25T08:27:33.274Z,102105.91
2023-01-25T08:29:59.828Z,102102.28
2023-01-25T08:32:26.476Z,102092.41
2023-01-25T08:34:53.034Z,102080.78
2023-01-25T08:37:20.040Z,102075.34
2023-01-25T08:39:46.683Z,102074.22
2023-01-25T08:42:13.200Z,102067.13
2023-01-25T08:44:39.748Z,102070.44
2023-01-25T08:47:06.507Z,102069.28
2023-01-25T08:49:34.518Z,102061.25
2023-01-25T08:52:01.364Z,102060.91
2023-01-25T08:54:28.145Z,102058.13
2023-01-25T08:56:55.016Z,102060.44
2023-01-25T08:59:21.598Z,102056.63
2023-01-25T09:01:48.148Z,102049.25
2023-01-25T09:04:14.762Z,102041.84
2023-01-25T09:06:41.300Z,102033.66
2023-01-25T09:09:08.630Z,102041.03
2023-01-25T09:11:38.170Z,102033.47
2023-01-25T09:14:05.380Z,102036.44
2023-01-25T09:16:32.012Z,102022.78
2023-01-25T09:19:01.022Z,102018.66
2023-01-25T09:21:28.389Z,102009.44
2023-01-25T09:24:10.675Z,102005.47
2023-01-25T09:26:40.807Z,102008.44
2023-01-25T09:29:09.195Z,101998.22
2023-01-25T09:31:40.435Z,101999.53
2023-01-25T09:34:08.696Z,101990.13
2023-01-25T09:36:36.002Z,101987.03
2023-01-25T09:39:02.513Z,101979.47
2023-01-25T09:42:00.641Z,101965.78
2023-01-25T09:45:03.872Z,101964.13
2023-01-25T09:47:36.732Z,101953.06
2023-01-25T09:50:12.800Z,101952.53
2023-01-25T09:53:04.483Z,101951.03
2023-01-25T09:55:32.619Z,101961.88
2023-01-25T09:58:02.724Z,101960.53
2023-01-25T10:00:49.801Z,101950.47
2023-01-25T10:03:41.829Z,101940.06
2023-01-25T10:06:13.282Z,101930.81
2023-01-25T10:08:51.608Z,101921.56
2023-01-25T10:11:26.174Z,101914.78
2023-01-25T10:13:56.001Z,101930.69
2023-01-25T10:16:36.957Z,101933.66
2023-01-25T10:19:22.969Z,101964.38
2023-01-25T10:21:59.407Z,101954.94
2023-01-25T10:24:28.677Z,101955.88
2023-01-25T10:27:10.043Z,101965.72
2023-01-25T10:29:38.087Z,101971.44
2023-01-25T10:32:16.720Z,101971.56
2023-01-25T10:34:56.399Z,101978.78
2023-01-25T10:37:30.821Z,101989.63
2023-01-25T10:40:12.556Z,101989.91
2023-01-25T10:43:03.044Z,101995.44
2023-01-25T10:45:29.584Z,101986.03
2023-01-25T10:48:04.809Z,101988.31
2023-01-25T10:50:46.652Z,101991.41
2023-01-25T10:53:21.444Z,101983.78
2023-01-25T10:56:06.267Z,101979.78
2023-01-25T10:58:37.107Z,101982.88
2023-01-25T11:01:12.336Z,101982.34
2023-01-25T11:03:46.467Z,101966.16
2023-01-25T11:06:13.255Z,101967.59
2023-01-25T11:08:42.305Z,101960.78
2023-01-25T11:11:33.524Z,101959.44
2023-01-25T11:14:00.111Z,101959.69
2023-01-25T11:16:37.349Z,101954.06
2023-01-25T11:19:24.003Z,101954.50
2023-01-25T11:21:55.662Z,101958.44
2023-01-25T11:24:27.206Z,101963.34
2023-01-25T11:27:13.917Z,101969.69
2023-01-25T11:29:40.459Z,101963.41
2023-01-25T11:32:21.593Z,101959.41
2023-01-25T11:34:50.557Z,101958.22
2023-01-25T11:37:41.949Z,101963.16
2023-01-25T11:40:20.535Z,101968.69
2023-01-25T11:43:08.002Z,101974.59
2023-01-25T11:45:42.072Z,101959.19
2023-01-25T11:48:14.626Z,101961.69
2023-01-25T11:50:50.052Z,101948.13
2023-01-25T11:53:35.469Z,101937.97
2023-01-25T11:56:15.460Z,101931.50
2023-01-25T11:58:57.152Z,101922.41
2023-01-25T12:01:48.131Z,101915.75
2023-01-25T12:04:42.044Z,101904.19
2023-01-25T12:07:31.332Z,101902.81
2023-01-25T12:10:21.935Z,101895.72
2023-01-25T12:13:03.416Z,101891.69
2023-01-25T12:15:40.107Z,101879.13
2023-01-25T12:18:18.583Z,101876.09
2023-01-25T12:21:26.377Z,101872.09
2023-01-25T12:24:52.198Z,101865.22
2023-01-25T12:27:27.659Z,101860.38
2023-01-25T12:30:00.194Z,101851.88
2023-01-25T12:32:36.823Z,101857.59
2023-01-25T12:35:03.263Z,101846.44
2023-01-25T12:37:36.422Z,101836.50
2023-01-25T12:40:21.240Z,101843.06
2023-01-25T12:42:53.158Z,101840.00
2023-01-25T12:45:34.075Z,101834.34
2023-01-25T12:48:04.646Z,101849.84
2023-01-25T12:50:38.879Z,101834.56
2023-01-25T12:53:18.135Z,101848.22
2023-01-25T12:55:45.512Z,101839.31
2023-01-25T12:58:38.200Z,101837.09
2023-01-25T13:01:23.869Z,101824.50
2023-01-25T13:04:16.666Z,101829.56
2023-01-25T13:07:36.156Z,101814.34
2023-01-25T13:10:14.637Z,101807.88
2023-01-25T13:12:55.736Z,101812.13
2023-01-25T13:15:36.280Z,101804.63
2023-01-25T13:18:22.792Z,101810.75
2023-01-25T13:20:53.268Z,101806.91
2023-01-25T13:23:34.631Z,101799.56
2023-01-25T13:26:28.373Z,101801.19
2023-01-25T13:28:56.443Z,101781.50
2023-01-25T13:31:51.129Z,101779.06
2023-01-25T13:34:40.162Z,101765.66
2023-01-25T13:37:19.456Z,101763.25
2023-01-25T13:39:56.454Z,101750.44
2023-01-25T13:42:27.408Z,101752.91
2023-01-25T13:44:59.931Z,101751.13
2023-01-25T13:47:30.373Z,101734.25
2023-01-25T13:50:00.209Z,101735.47
2023-01-25T13:52:28.108Z,101728.97
2023-01-25T13:54:57.318Z,101727.97
2023-01-25T13:57:32.132Z,101720.63
2023-01-25T14:00:16.956Z,101725.53
2023-01-25T14:02:47.301Z,101729.78
2023-01-25T14:05:22.698Z,101730.59
2023-01-25T14:07:52.548Z,101742.63
2023-01-25T14:10:24.260Z,101734.69
2023-01-25T14:12:53.129Z,101733.50
2023-01-25T14:15:31.828Z,101729.00
2023-01-25T14:18:19.262Z,101722.69
2023-01-25T14:20:48.491Z,101720.25
2023-01-25T14:23:34.334Z,101703.13
2023-01-25T14:26:02.095Z,101709.47
2023-01-25T14:28:30.149Z,101706.81
2023-01-25T14:30:58.741Z,101698.06
2023-01-25T14:33:44.388Z,101688.28
2023-01-25T14:36:25.258Z,101694.59
2023-01-25T14:38:52.904Z,101694.59
2023-01-25T14:41:59.204Z,101702.31
2023-01-25T14:44:28.957Z,101700.69
2023-01-25T14:47:22.273Z,101693.16
2023-01-25T14:49:48.797Z,101685.22
2023-01-25T14:52:21.887Z,101689.69
2023-01-25T14:54:58.166Z,101701.09
2023-01-25T14:57:38.051Z,101696.59
2023-01-25T15:00:20.477Z,101704.56
2023-01-25T15:02:50.553Z,101702.94
2023-01-25T15:05:24.291Z,101706.38
2023-01-25T15:07:55.081Z,101715.16
2023-01-25T15:10:31.201Z,101700.06
2023-01-25T15:13:11.602Z,101697.41
2023-01-25T15:15:51.488Z,101699.06
2023-01-25T15:18:45.827Z,101694.59
2023-01-25T15:21:20.236Z,101684.81
2023-01-25T15:23:49.279Z,101682.16
2023-01-25T15:26:24.240Z,101680.34
2023-01-25T15:28:54.005Z,101662.00
2023-01-25T15:31:31.897Z,101675.03
2023-01-25T15:34:00.302Z,101691.53
2023-01-25T15:36:27.973Z,101691.53
2023-01-25T15:38:54.651Z,101697.66
2023-01-25T15:41:21.464Z,101701.13
2023-01-25T15:43:48.964Z,101706.41
2023-01-25T15:46:19.780Z,101713.34
2023-01-25T15:48:48.241Z,101708.84
2023-01-25T15:51:15.119Z,101704.38
2023-01-25T15:53:42.164Z,101700.69
2023-01-25T15:56:13.112Z,101691.94
2023-01-25T15:58:42.393Z,101695.41
2023-01-25T16:01:09.103Z,101697.06
2023-01-25T16:03:35.755Z,101704.19
2023-01-25T16:06:05.805Z,101704.19
2023-01-25T16:08:33.622Z,101705.19
2023-01-25T16:11:00.351Z,101706.19
2023-01-25T16:13:26.874Z,101704.56
2023-01-25T16:15:56.274Z,101709.88
2023-01-25T16:18:22.800Z,101708.44
2023-01-25T16:20:49.340Z,101715.56
2023-01-25T16:23:15.823Z,101717.59
2023-01-25T16:25:44.549Z,101721.47
2023-01-25T16:28:14.966Z,101725.72
2023-01-25T16:30:42.178Z,101729.59
2023-01-25T16:33:08.659Z,101707.59
2023-01-25T16:35:35.220Z,101690.09
2023-01-25T16:38:01.794Z,101704.34
2023-01-25T16:40:36.725Z,101702.31
2023-01-25T16:43:03.342Z,101705.72
2023-01-25T16:45:30.524Z,101710.19
2023-01-25T16:47:57.351Z,101714.66
2023-01-25T16:50:24.330Z,101730.09
2023-01-25T16:52:51.701Z,101738.78
2023-01-25T16:55:19.420Z,101748.13
2023-01-25T16:57:49.854Z,101743.59
2023-01-25T17:00:16.930Z,101741.91
2023-01-25T17:02:57.201Z,101747.19
2023-01-25T17:05:27.801Z,101731.34
2023-01-25T17:07:54.644Z,101724.97
2023-01-25T17:10:21.233Z,101725.94
2023-01-25T17:12:48.345Z,101749.84
2023-01-25T17:15:14.891Z,101760.03
2023-01-25T17:17:41.448Z,101767.28
2023-01-25T17:20:08.974Z,101774.78
2023-01-25T17:22:37.601Z,101773.47
2023-01-25T17:25:07.424Z,101771.25
2023-01-25T17:27:33.932Z,101768.31
2023-01-25T17:30:00.610Z,101773.75
2023-01-25T17:32:28.692Z,101779.13
2023-01-25T17:34:58.985Z,101779.31
2023-01-25T17:37:25.651Z,101787.38
2023-01-25T17:39:52.138Z,101776.94
2023-01-25T17:42:18.638Z,101791.09
2023-01-25T17:44:45.171Z,101788.16
2023-01-25T17:47:11.690Z,101785.34
2023-01-25T17:49:38.221Z,101780.44
2023-01-25T17:52:04.938Z,101775.53
2023-01-25T17:54:31.577Z,101781.09
2023-01-25T17:56:58.131Z,101800.19
2023-01-25T17:59:24.831Z,101794.72
2023-01-25T18:01:51.502Z,101789.25
2023-01-25T18:04:18.214Z,101792.72
2023-01-25T18:06:45.123Z,101789.06
2023-01-25T18:09:11.720Z,101786.63
2023-01-25T18:11:40.818Z,101790.50
2023-01-25T18:14:12.707Z,101789.34
2023-01-25T18:16:40.686Z,101796.59
2023-01-25T18:19:08.439Z,101792.34
2023-01-25T18:21:35.747Z,101781.34
2023-01-25T18:24:14.174Z,101794.09
2023-01-25T18:26:42.334Z,101815.78
2023-01-25T18:29:08.782Z,101817.75
2023-01-25T18:31:36.022Z,101817.19
2023-01-25T18:34:02.693Z,101818.00
2023-01-25T18:36:29.310Z,101808.41
2023-01-25T18:38:57.243Z,101821.75
2023-01-25T18:41:23.787Z,101825.88
2023-01-25T18:43:50.444Z,101830.69
2023-01-25T18:46:17.038Z,101836.16
2023-01-25T18:48:47.004Z,101827.94
2023-01-25T18:51:15.591Z,101831.69
2023-01-25T18:53:44.423Z,101836.41
2023-01-25T18:56:14.298Z,101834.31
2023-01-25T18:58:41.600Z,101842.13
2023-01-25T19:01:17.933Z,101845.47
2023-01-25T19:03:45.814Z,101845.81
2023-01-25T19:06:13.161Z,101838.31
2023-01-25T19:08:44.616Z,101847.09
2023-01-25T19:11:17.305Z,101839.06
2023-01-25T19:13:44.601Z,101844.69
2023-01-25T19:16:17.355Z,101850.16
2023-01-25T19:18:47.120Z,101858.88
2023-01-25T19:21:19.674Z,101860.22
2023-01-25T19:23:46.395Z,101859.41
2023-01-25T19:26:16.281Z,101857.94
2023-01-25T19:28:43.439Z,101864.22
2023-01-25T19:31:12.450Z,101862.94
2023-01-25T19:33:39.838Z,101859.00
2023-01-25T19:36:09.135Z,101860.00
2023-01-25T19:38:39.597Z,101859.00
2023-01-25T19:41:08.777Z,101865.63
2023-01-25T19:43:35.643Z,101858.72
2023-01-25T19:46:12.163Z,101862.34
2023-01-25T19:48:39.647Z,101859.22
2023-01-25T19:51:13.140Z,101854.34
2023-01-25T19:53:46.456Z,101865.03
2023-01-25T19:56:16.328Z,101861.94
2023-01-25T19:58:47.439Z,101855.22
2023-01-25T20:01:16.153Z,101860.81
2023-01-25T20:03:43.539Z,101872.50
2023-01-25T20:06:11.900Z,101866.97
2023-01-25T20:08:40.686Z,101874.22
2023-01-25T20:11:21.680Z,101870.28
2023-01-25T20:13:50.409Z,101875.44
2023-01-25T20:16:17.979Z,101872.66
2023-01-25T20:18:45.995Z,101861.19
2023-01-25T20:21:15.370Z,101861.56
2023-01-25T20:23:44.240Z,101873.22
2023-01-25T20:26:13.892Z,101873.53
2023-01-25T20:28:41.650Z,101868.50
2023-01-25T20:31:39.341Z,101866.56
2023-01-25T20:34:10.780Z,101874.63
2023-01-25T20:36:37.587Z,101871.03
2023-01-25T20:39:05.683Z,101871.03
2023-01-25T20:41:32.341Z,101877.81
2023-01-25T20:44:01.994Z,101888.19
2023-01-25T20:46:29.760Z,101888.19
2023-01-25T20:48:56.397Z,101890.00
2023-01-25T20:51:24.008Z,101887.88
2023-01-25T20:53:51.132Z,101889.03
2023-01-25T20:56:18.904Z,101895.44
2023-01-25T20:58:50.491Z,101892.34
2023-01-25T21:01:23.166Z,101893.50
2023-01-25T21:03:50.187Z,101901.91
2023-01-25T21:06:17.298Z,101904.88
2023-01-25T21:08:44.297Z,101899.13
2023-01-25T21:11:11.718Z,101905.50
2023-01-25T21:13:38.260Z,101906.03
2023-01-25T21:16:19.284Z,101905.53
2023-01-25T21:18:48.518Z,101926.06
2023-01-25T21:21:22.731Z,101915.56
2023-01-25T21:23:50.476Z,101913.75
2023-01-25T21:26:22.332Z,101912.63
2023-01-25T21:28:50.040Z,101920.19
2023-01-25T21:31:19.931Z,101926.56
2023-01-25T21:33:47.603Z,101934.63
2023-01-25T21:36:16.436Z,101926.06
2023-01-25T21:38:44.987Z,101939.72
2023-01-25T21:41:17.084Z,101939.22
2023-01-25T21:44:02.151Z,101944.13
2023-01-25T21:46:28.828Z,101940.84
2023-01-25T21:49:15.915Z,101938.72
2023-01-25T21:51:50.967Z,101935.25
2023-01-25T21:54:28.957Z,101939.03
2023-01-25T21:56:57.507Z,101938.69
2023-01-25T21:59:24.677Z,101935.56
2023-01-25T22:01:52.543Z,101938.50
2023-01-25T22:04:20.583Z,101935.25
2023-01-25T22:06:48.724Z,101941.94
2023-01-25T22:09:15.418Z,101939.50
2023-01-25T22:11:42.462Z,101939.66
2023-01-25T22:14:09.145Z,101948.66
2023-01-25T22:16:35.735Z,101947.50
2023-01-25T22:19:02.356Z,101949.31
2023-01-25T22:21:32.054Z,101941.78
2023-01-25T22:24:00.801Z,101944.84
2023-01-25T22:26:39.321Z,101942.72
2023-01-25T22:29:05.856Z,101936.13
2023-01-25T22:31:32.804Z,101943.50
2023-01-25T22:34:00.292Z,101949.91
2023-01-25T22:36:29.089Z,101948.41
2023-01-25T22:38:56.176Z,101958.56
2023-01-25T22:41:28.339Z,101958.19
2023-01-25T22:43:55.335Z,101964.28
2023-01-25T22:46:24.742Z,101961.00
2023-01-25T22:48:51.723Z,101964.28
2023-01-25T22:51:28.137Z,101960.81
2023-01-25T22:53:56.085Z,101962.28
2023-01-25T22:56:32.023Z,101957.88
2023-01-25T22:58:59.875Z,101964.25
2023-01-25T23:01:28.774Z,101964.41
2023-01-25T23:03:56.097Z,101962.25
2023-01-25T23:06:31.199Z,101960.63
2023-01-25T23:09:00.029Z,101964.19
2023-01-25T23:11:38.226Z,101964.38
2023-01-25T23:14:30.224Z,101975.03
2023-01-25T23:17:16.973Z,101980.75
2023-01-25T23:19:43.689Z,101980.06
2023-01-25T23:22:10.266Z,101987.28
2023-01-25T23:24:36.823Z,101982.16
2023-01-25T23:27:03.364Z,101976.41
2023-01-25T23:29:29.959Z,101978.22
2023-01-25T23:31:56.519Z,101982.13
2023-01-25T23:34:23.074Z,101972.75
2023-01-25T23:36:49.597Z,101965.06
2023-01-25T23:39:16.105Z,101976.38
2023-01-25T23:41:42.643Z,101972.94
2023-01-25T23:44:09.811Z,101983.72
2023-01-25T23:46:36.853Z,101983.88
2023-01-25T23:49:03.366Z,101985.81
2023-01-25T23:51:29.863Z,101987.78
2023-01-25T23:53:57.766Z,101972.53
2023-01-25T23:56:24.465Z,101982.19
2023-01-25T23:58:51.062Z,101983.16
